Valjevo, Serbia
Current Conditions -  °F | °C
As of 4:00 PM on Monday 24 Nov 2014 (Local Time) from LYUZ Reporting Station
Moderate Fog Moderate Fog  
Wind Chill: 27°   Ceiling: 100
Heat Index: 32°   Visibility: 0.06mi
Dew Point: 32°   Wind: 5mph
Humidity: 100%   Direction: 100°E
Pressure: 30.21"   Gusts: NA
Location:  44.28°N, 19.89°E
Report Text: LYUZ 241400Z 10004KT 060V180 0100 FG VV001 00/00 Q1023
Loading
Personal Weather Stations






























Interactive Weather Map New forecast layout! Learn more

10-Day Weather Forecast

Advertisements
Track Severe Weather on mobile